sensor_id;sensor_type;location;lat;lon;timestamp;temperature;humidity
7000;DHT22;3540;53.242;10.408;2023-04-07T00:01:22;4.90;99.90
7000;DHT22;3540;53.242;10.408;2023-04-07T00:03:48;4.90;99.90
7000;DHT22;3540;53.242;10.408;2023-04-07T00:06:13;4.80;99.90
7000;DHT22;3540;53.242;10.408;2023-04-07T00:08:40;4.80;99.90
7000;DHT22;3540;53.242;10.408;2023-04-07T00:11:06;4.80;99.90
7000;DHT22;3540;53.242;10.408;2023-04-07T00:13:33;4.80;99.90
7000;DHT22;3540;53.242;10.408;2023-04-07T00:15:58;4.70;99.90
7000;DHT22;3540;53.242;10.408;2023-04-07T00:18:24;4.70;99.90
7000;DHT22;3540;53.242;10.408;2023-04-07T00:20:50;4.60;99.90
7000;DHT22;3540;53.242;10.408;2023-04-07T00:23:15;4.60;99.90
7000;DHT22;3540;53.242;10.408;2023-04-07T00:25:41;4.60;99.90
7000;DHT22;3540;53.242;10.408;2023-04-07T00:28:06;4.60;99.90
7000;DHT22;3540;53.242;10.408;2023-04-07T00:30:32;4.60;99.90
7000;DHT22;3540;53.242;10.408;2023-04-07T00:32:58;4.50;99.90
7000;DHT22;3540;53.242;10.408;2023-04-07T00:35:23;4.50;99.90
7000;DHT22;3540;53.242;10.408;2023-04-07T00:37:49;4.50;99.90
7000;DHT22;3540;53.242;10.408;2023-04-07T00:40:14;4.40;99.90
7000;DHT22;3540;53.242;10.408;2023-04-07T00:42:41;4.50;99.90
7000;DHT22;3540;53.242;10.408;2023-04-07T00:45:07;4.40;99.90
7000;DHT22;3540;53.242;10.408;2023-04-07T00:47:34;4.40;99.90
7000;DHT22;3540;53.242;10.408;2023-04-07T00:50:00;4.40;99.90
7000;DHT22;3540;53.242;10.408;2023-04-07T00:52:27;4.30;99.90
7000;DHT22;3540;53.242;10.408;2023-04-07T00:54:54;4.30;99.90
7000;DHT22;3540;53.242;10.408;2023-04-07T00:57:21;4.20;99.90
7000;DHT22;3540;53.242;10.408;2023-04-07T00:59:50;4.20;99.90
7000;DHT22;3540;53.242;10.408;2023-04-07T01:11:00;4.10;99.90
7000;DHT22;3540;53.242;10.408;2023-04-07T01:13:33;4.10;99.90
7000;DHT22;3540;53.242;10.408;2023-04-07T01:16:03;4.10;99.90
7000;DHT22;3540;53.242;10.408;2023-04-07T01:18:34;4.10;99.90
7000;DHT22;3540;53.242;10.408;2023-04-07T01:21:06;4.00;99.90
7000;DHT22;3540;53.242;10.408;2023-04-07T01:26:23;3.90;99.90
7000;DHT22;3540;53.242;10.408;2023-04-07T01:31:38;3.90;99.90
7000;DHT22;3540;53.242;10.408;2023-04-07T01:34:05;3.90;99.90
7000;DHT22;3540;53.242;10.408;2023-04-07T01:36:33;3.80;99.90
7000;DHT22;3540;53.242;10.408;2023-04-07T01:38:59;3.80;99.90
7000;DHT22;3540;53.242;10.408;2023-04-07T01:41:26;3.70;99.90
7000;DHT22;3540;53.242;10.408;2023-04-07T01:43:53;3.90;99.90
7000;DHT22;3540;53.242;10.408;2023-04-07T01:46:19;4.00;99.90
7000;DHT22;3540;53.242;10.408;2023-04-07T01:48:46;3.90;99.90
7000;DHT22;3540;53.242;10.408;2023-04-07T01:51:13;3.80;99.90
7000;DHT22;3540;53.242;10.408;2023-04-07T01:53:44;3.90;99.90
7000;DHT22;3540;53.242;10.408;2023-04-07T01:56:11;3.80;99.90
7000;DHT22;3540;53.242;10.408;2023-04-07T01:58:36;3.80;99.90
7000;DHT22;3540;53.242;10.408;2023-04-07T02:01:02;3.70;99.90
7000;DHT22;3540;53.242;10.408;2023-04-07T02:06:07;3.70;99.90
7000;DHT22;3540;53.242;10.408;2023-04-07T02:08:35;3.70;99.90
7000;DHT22;3540;53.242;10.408;2023-04-07T02:11:04;3.70;99.90
7000;DHT22;3540;53.242;10.408;2023-04-07T02:13:33;3.70;99.90
7000;DHT22;3540;53.242;10.408;2023-04-07T02:16:00;3.50;99.90
7000;DHT22;3540;53.242;10.408;2023-04-07T02:18:28;3.40;99.90
7000;DHT22;3540;53.242;10.408;2023-04-07T02:20:56;3.40;99.90
7000;DHT22;3540;53.242;10.408;2023-04-07T02:23:22;3.40;99.90
7000;DHT22;3540;53.242;10.408;2023-04-07T02:25:48;3.30;99.90
7000;DHT22;3540;53.242;10.408;2023-04-07T02:28:14;3.30;99.90
7000;DHT22;3540;53.242;10.408;2023-04-07T02:30:39;3.40;99.90
7000;DHT22;3540;53.242;10.408;2023-04-07T02:33:05;3.40;99.90
7000;DHT22;3540;53.242;10.408;2023-04-07T02:35:31;3.40;99.90
7000;DHT22;3540;53.242;10.408;2023-04-07T02:37:56;3.30;99.90
7000;DHT22;3540;53.242;10.408;2023-04-07T02:40:22;3.30;99.90
7000;DHT22;3540;53.242;10.408;2023-04-07T02:42:48;3.20;99.90
7000;DHT22;3540;53.242;10.408;2023-04-07T02:45:14;3.20;99.90
7000;DHT22;3540;53.242;10.408;2023-04-07T02:47:40;3.20;99.90
7000;DHT22;3540;53.242;10.408;2023-04-07T02:50:06;3.20;99.90
7000;DHT22;3540;53.242;10.408;2023-04-07T02:52:32;3.20;99.90
7000;DHT22;3540;53.242;10.408;2023-04-07T02:54:57;3.20;99.90
7000;DHT22;3540;53.242;10.408;2023-04-07T02:57:23;3.20;99.90
7000;DHT22;3540;53.242;10.408;2023-04-07T02:59:48;3.10;99.90
7000;DHT22;3540;53.242;10.408;2023-04-07T03:02:14;3.10;99.90
7000;DHT22;3540;53.242;10.408;2023-04-07T03:04:40;3.00;99.90
7000;DHT22;3540;53.242;10.408;2023-04-07T03:07:06;3.00;99.90
7000;DHT22;3540;53.242;10.408;2023-04-07T03:09:31;3.00;99.90
7000;DHT22;3540;53.242;10.408;2023-04-07T03:11:57;3.00;99.90
7000;DHT22;3540;53.242;10.408;2023-04-07T03:14:22;3.00;99.90
7000;DHT22;3540;53.242;10.408;2023-04-07T03:16:48;3.00;99.90
7000;DHT22;3540;53.242;10.408;2023-04-07T03:19:14;3.00;99.90
7000;DHT22;3540;53.242;10.408;2023-04-07T03:21:40;2.90;99.90
7000;DHT22;3540;53.242;10.408;2023-04-07T03:24:06;2.90;99.90
7000;DHT22;3540;53.242;10.408;2023-04-07T03:26:32;2.90;99.90
7000;DHT22;3540;53.242;10.408;2023-04-07T03:28:58;2.90;99.90
7000;DHT22;3540;53.242;10.408;2023-04-07T03:31:23;2.90;99.90
7000;DHT22;3540;53.242;10.408;2023-04-07T03:33:50;2.80;99.90
7000;DHT22;3540;53.242;10.408;2023-04-07T03:36:15;2.80;99.90
7000;DHT22;3540;53.242;10.408;2023-04-07T03:38:46;2.70;99.90
7000;DHT22;3540;53.242;10.408;2023-04-07T03:41:12;2.70;99.90
7000;DHT22;3540;53.242;10.408;2023-04-07T03:43:38;2.60;99.90
7000;DHT22;3540;53.242;10.408;2023-04-07T03:46:03;2.50;99.90
7000;DHT22;3540;53.242;10.408;2023-04-07T03:48:29;2.50;99.90
7000;DHT22;3540;53.242;10.408;2023-04-07T03:50:55;2.50;99.90
7000;DHT22;3540;53.242;10.408;2023-04-07T03:53:21;2.50;99.90
7000;DHT22;3540;53.242;10.408;2023-04-07T03:55:46;2.50;99.90
7000;DHT22;3540;53.242;10.408;2023-04-07T03:58:12;2.40;99.90
7000;DHT22;3540;53.242;10.408;2023-04-07T04:00:38;2.40;99.90
7000;DHT22;3540;53.242;10.408;2023-04-07T04:03:04;2.30;99.90
7000;DHT22;3540;53.242;10.408;2023-04-07T04:05:30;2.30;99.90
7000;DHT22;3540;53.242;10.408;2023-04-07T04:07:55;2.30;99.90
7000;DHT22;3540;53.242;10.408;2023-04-07T04:10:21;2.30;99.90
7000;DHT22;3540;53.242;10.408;2023-04-07T04:12:47;2.20;99.90
7000;DHT22;3540;53.242;10.408;2023-04-07T04:15:14;2.20;99.90
7000;DHT22;3540;53.242;10.408;2023-04-07T04:17:40;2.20;99.90
7000;DHT22;3540;53.242;10.408;2023-04-07T04:20:07;2.10;99.90
7000;DHT22;3540;53.242;10.408;2023-04-07T04:22:33;2.10;99.90
7000;DHT22;3540;53.242;10.408;2023-04-07T04:24:59;2.10;99.90
7000;DHT22;3540;53.242;10.408;2023-04-07T04:27:25;2.10;99.90
7000;DHT22;3540;53.242;10.408;2023-04-07T04:29:51;2.10;99.90
7000;DHT22;3540;53.242;10.408;2023-04-07T04:32:18;2.10;99.90
7000;DHT22;3540;53.242;10.408;2023-04-07T04:34:43;2.00;99.90
7000;DHT22;3540;53.242;10.408;2023-04-07T04:37:09;2.00;99.90
7000;DHT22;3540;53.242;10.408;2023-04-07T04:39:35;2.00;99.90
7000;DHT22;3540;53.242;10.408;2023-04-07T04:42:00;1.90;99.90
7000;DHT22;3540;53.242;10.408;2023-04-07T04:44:26;1.90;99.90
7000;DHT22;3540;53.242;10.408;2023-04-07T04:46:52;1.90;99.90
7000;DHT22;3540;53.242;10.408;2023-04-07T04:49:18;1.90;99.90
7000;DHT22;3540;53.242;10.408;2023-04-07T04:51:44;1.90;99.90
7000;DHT22;3540;53.242;10.408;2023-04-07T04:54:10;1.90;99.90
7000;DHT22;3540;53.242;10.408;2023-04-07T04:56:36;1.90;99.90
7000;DHT22;3540;53.242;10.408;2023-04-07T04:59:03;1.90;99.90
7000;DHT22;3540;53.242;10.408;2023-04-07T05:01:29;1.90;99.90
7000;DHT22;3540;53.242;10.408;2023-04-07T05:03:55;1.90;99.90
7000;DHT22;3540;53.242;10.408;2023-04-07T05:06:20;1.90;99.90
7000;DHT22;3540;53.242;10.408;2023-04-07T05:08:46;1.90;99.90
7000;DHT22;3540;53.242;10.408;2023-04-07T05:11:12;1.90;99.90
7000;DHT22;3540;53.242;10.408;2023-04-07T05:13:37;1.90;99.90
7000;DHT22;3540;53.242;10.408;2023-04-07T05:16:03;2.00;99.90
7000;DHT22;3540;53.242;10.408;2023-04-07T05:18:29;2.10;99.90
7000;DHT22;3540;53.242;10.408;2023-04-07T05:20:55;2.20;99.90
7000;DHT22;3540;53.242;10.408;2023-04-07T05:23:20;2.20;99.90
7000;DHT22;3540;53.242;10.408;2023-04-07T05:25:46;2.30;99.90
7000;DHT22;3540;53.242;10.408;2023-04-07T05:28:12;2.40;99.90
7000;DHT22;3540;53.242;10.408;2023-04-07T05:30:37;2.40;99.90
7000;DHT22;3540;53.242;10.408;2023-04-07T05:33:03;2.50;99.90
7000;DHT22;3540;53.242;10.408;2023-04-07T05:35:29;2.60;99.90
7000;DHT22;3540;53.242;10.408;2023-04-07T05:37:54;2.70;99.90
7000;DHT22;3540;53.242;10.408;2023-04-07T05:40:20;2.80;99.90
7000;DHT22;3540;53.242;10.408;2023-04-07T05:42:46;2.80;99.90
7000;DHT22;3540;53.242;10.408;2023-04-07T05:45:11;2.90;99.90
7000;DHT22;3540;53.242;10.408;2023-04-07T05:47:37;3.10;99.90
7000;DHT22;3540;53.242;10.408;2023-04-07T05:50:03;3.20;99.90
7000;DHT22;3540;53.242;10.408;2023-04-07T05:52:29;3.50;99.90
7000;DHT22;3540;53.242;10.408;2023-04-07T05:54:55;3.50;99.90
7000;DHT22;3540;53.242;10.408;2023-04-07T05:57:21;3.60;99.90
7000;DHT22;3540;53.242;10.408;2023-04-07T05:59:47;3.70;99.90
7000;DHT22;3540;53.242;10.408;2023-04-07T06:02:13;3.90;99.90
7000;DHT22;3540;53.242;10.408;2023-04-07T06:04:39;3.90;99.90
7000;DHT22;3540;53.242;10.408;2023-04-07T06:07:04;4.00;99.90
7000;DHT22;3540;53.242;10.408;2023-04-07T06:09:30;4.10;99.90
7000;DHT22;3540;53.242;10.408;2023-04-07T06:11:56;4.20;99.90
7000;DHT22;3540;53.242;10.408;2023-04-07T06:14:22;4.20;99.90
7000;DHT22;3540;53.242;10.408;2023-04-07T06:16:47;4.30;99.90
7000;DHT22;3540;53.242;10.408;2023-04-07T06:19:13;4.40;99.90
7000;DHT22;3540;53.242;10.408;2023-04-07T06:21:39;4.50;99.90
7000;DHT22;3540;53.242;10.408;2023-04-07T06:24:05;4.60;99.90
7000;DHT22;3540;53.242;10.408;2023-04-07T06:26:31;4.70;99.90
7000;DHT22;3540;53.242;10.408;2023-04-07T06:28:57;4.80;99.90
7000;DHT22;3540;53.242;10.408;2023-04-07T06:31:23;4.90;99.90
7000;DHT22;3540;53.242;10.408;2023-04-07T06:33:49;5.10;99.90
7000;DHT22;3540;53.242;10.408;2023-04-07T06:36:14;5.20;99.90
7000;DHT22;3540;53.242;10.408;2023-04-07T06:38:40;5.20;99.90
7000;DHT22;3540;53.242;10.408;2023-04-07T06:41:06;5.30;99.90
7000;DHT22;3540;53.242;10.408;2023-04-07T06:43:36;5.30;99.90
7000;DHT22;3540;53.242;10.408;2023-04-07T06:46:01;5.40;99.90
7000;DHT22;3540;53.242;10.408;2023-04-07T06:48:27;5.50;99.90
7000;DHT22;3540;53.242;10.408;2023-04-07T06:50:53;5.60;99.90
7000;DHT22;3540;53.242;10.408;2023-04-07T06:53:18;5.70;99.90
7000;DHT22;3540;53.242;10.408;2023-04-07T06:55:44;5.90;99.90
7000;DHT22;3540;53.242;10.408;2023-04-07T06:58:10;6.00;99.90
7000;DHT22;3540;53.242;10.408;2023-04-07T07:00:35;6.10;99.90
7000;DHT22;3540;53.242;10.408;2023-04-07T07:03:01;6.10;99.90
7000;DHT22;3540;53.242;10.408;2023-04-07T07:05:27;6.30;99.90
7000;DHT22;3540;53.242;10.408;2023-04-07T07:07:53;6.30;99.90
7000;DHT22;3540;53.242;10.408;2023-04-07T07:10:18;6.40;99.90
7000;DHT22;3540;53.242;10.408;2023-04-07T07:12:48;6.60;99.90
7000;DHT22;3540;53.242;10.408;2023-04-07T07:15:14;6.70;99.90
7000;DHT22;3540;53.242;10.408;2023-04-07T07:17:40;6.90;99.90
7000;DHT22;3540;53.242;10.408;2023-04-07T07:20:06;6.90;99.90
7000;DHT22;3540;53.242;10.408;2023-04-07T07:22:32;7.00;99.90
7000;DHT22;3540;53.242;10.408;2023-04-07T07:24:57;7.10;99.90
7000;DHT22;3540;53.242;10.408;2023-04-07T07:27:23;7.30;99.90
7000;DHT22;3540;53.242;10.408;2023-04-07T07:29:49;7.40;99.90
7000;DHT22;3540;53.242;10.408;2023-04-07T07:32:14;7.50;99.90
7000;DHT22;3540;53.242;10.408;2023-04-07T07:34:40;7.70;99.90
7000;DHT22;3540;53.242;10.408;2023-04-07T07:37:05;7.80;99.90
7000;DHT22;3540;53.242;10.408;2023-04-07T07:39:31;7.90;99.90
7000;DHT22;3540;53.242;10.408;2023-04-07T07:41:57;8.00;99.90
7000;DHT22;3540;53.242;10.408;2023-04-07T07:44:22;7.80;99.90
7000;DHT22;3540;53.242;10.408;2023-04-07T07:46:49;7.90;99.90
7000;DHT22;3540;53.242;10.408;2023-04-07T07:49:15;7.80;99.90
7000;DHT22;3540;53.242;10.408;2023-04-07T07:51:40;7.80;99.90
7000;DHT22;3540;53.242;10.408;2023-04-07T07:54:06;7.80;99.90
7000;DHT22;3540;53.242;10.408;2023-04-07T07:56:32;7.80;99.90
7000;DHT22;3540;53.242;10.408;2023-04-07T07:58:57;7.80;99.90
7000;DHT22;3540;53.242;10.408;2023-04-07T08:01:23;7.90;99.90
7000;DHT22;3540;53.242;10.408;2023-04-07T08:03:49;7.70;99.90
7000;DHT22;3540;53.242;10.408;2023-04-07T08:06:14;7.60;99.90
7000;DHT22;3540;53.242;10.408;2023-04-07T08:08:40;7.90;99.90
7000;DHT22;3540;53.242;10.408;2023-04-07T08:11:06;7.90;99.90
7000;DHT22;3540;53.242;10.408;2023-04-07T08:13:32;8.00;99.90
7000;DHT22;3540;53.242;10.408;2023-04-07T08:15:57;8.30;99.90
7000;DHT22;3540;53.242;10.408;2023-04-07T08:18:23;8.20;99.90
7000;DHT22;3540;53.242;10.408;2023-04-07T08:20:49;8.50;99.90
7000;DHT22;3540;53.242;10.408;2023-04-07T08:23:16;8.40;99.90
7000;DHT22;3540;53.242;10.408;2023-04-07T08:25:41;8.50;99.90
7000;DHT22;3540;53.242;10.408;2023-04-07T08:28:07;8.60;99.90
7000;DHT22;3540;53.242;10.408;2023-04-07T08:30:33;8.80;99.90
7000;DHT22;3540;53.242;10.408;2023-04-07T08:32:59;9.10;99.90
7000;DHT22;3540;53.242;10.408;2023-04-07T08:35:24;9.20;99.90
7000;DHT22;3540;53.242;10.408;2023-04-07T08:37:50;9.20;99.90
7000;DHT22;3540;53.242;10.408;2023-04-07T08:40:16;8.70;99.90
7000;DHT22;3540;53.242;10.408;2023-04-07T08:42:46;8.80;99.90
7000;DHT22;3540;53.242;10.408;2023-04-07T08:45:13;9.10;99.90
7000;DHT22;3540;53.242;10.408;2023-04-07T08:47:41;9.40;99.90
7000;DHT22;3540;53.242;10.408;2023-04-07T08:50:09;9.50;99.90
7000;DHT22;3540;53.242;10.408;2023-04-07T08:55:04;9.50;99.90
7000;DHT22;3540;53.242;10.408;2023-04-07T08:57:32;9.30;99.90
7000;DHT22;3540;53.242;10.408;2023-04-07T08:59:59;9.60;99.90
7000;DHT22;3540;53.242;10.408;2023-04-07T09:02:34;9.30;99.90
7000;DHT22;3540;53.242;10.408;2023-04-07T09:05:02;9.40;99.90
7000;DHT22;3540;53.242;10.408;2023-04-07T09:07:28;9.70;99.90
7000;DHT22;3540;53.242;10.408;2023-04-07T09:09:54;10.00;99.90
7000;DHT22;3540;53.242;10.408;2023-04-07T09:12:21;10.20;99.90
7000;DHT22;3540;53.242;10.408;2023-04-07T09:14:47;10.30;99.90
7000;DHT22;3540;53.242;10.408;2023-04-07T09:17:12;10.60;99.90
7000;DHT22;3540;53.242;10.408;2023-04-07T09:19:38;10.10;99.90
7000;DHT22;3540;53.242;10.408;2023-04-07T09:22:04;10.30;99.90
7000;DHT22;3540;53.242;10.408;2023-04-07T09:24:29;10.70;99.90
7000;DHT22;3540;53.242;10.408;2023-04-07T09:29:37;10.30;99.90
7000;DHT22;3540;53.242;10.408;2023-04-07T09:32:03;9.80;99.90
7000;DHT22;3540;53.242;10.408;2023-04-07T09:34:31;9.60;99.90
7000;DHT22;3540;53.242;10.408;2023-04-07T09:36:57;9.80;99.90
7000;DHT22;3540;53.242;10.408;2023-04-07T09:39:23;10.00;99.90
7000;DHT22;3540;53.242;10.408;2023-04-07T09:41:50;10.40;99.90
7000;DHT22;3540;53.242;10.408;2023-04-07T09:44:17;10.10;99.90
7000;DHT22;3540;53.242;10.408;2023-04-07T09:46:53;10.00;99.90
7000;DHT22;3540;53.242;10.408;2023-04-07T09:49:20;10.30;99.90
7000;DHT22;3540;53.242;10.408;2023-04-07T09:52:11;10.60;99.90
7000;DHT22;3540;53.242;10.408;2023-04-07T09:54:39;10.90;99.90
7000;DHT22;3540;53.242;10.408;2023-04-07T09:57:10;10.90;99.90
7000;DHT22;3540;53.242;10.408;2023-04-07T09:59:38;10.30;99.90
7000;DHT22;3540;53.242;10.408;2023-04-07T10:02:04;9.90;99.90
7000;DHT22;3540;53.242;10.408;2023-04-07T10:04:31;10.30;99.90
7000;DHT22;3540;53.242;10.408;2023-04-07T10:06:57;10.60;99.90
7000;DHT22;3540;53.242;10.408;2023-04-07T10:09:26;10.90;99.90
7000;DHT22;3540;53.242;10.408;2023-04-07T10:11:52;10.90;99.90
7000;DHT22;3540;53.242;10.408;2023-04-07T10:14:19;11.00;99.90
7000;DHT22;3540;53.242;10.408;2023-04-07T10:16:46;10.40;99.90
7000;DHT22;3540;53.242;10.408;2023-04-07T10:19:13;10.50;99.90
7000;DHT22;3540;53.242;10.408;2023-04-07T10:21:40;10.80;99.90
7000;DHT22;3540;53.242;10.408;2023-04-07T10:26:57;11.60;99.90
7000;DHT22;3540;53.242;10.408;2023-04-07T10:29:24;11.30;99.90
7000;DHT22;3540;53.242;10.408;2023-04-07T10:31:51;10.60;99.90
7000;DHT22;3540;53.242;10.408;2023-04-07T10:37:13;10.10;99.90
7000;DHT22;3540;53.242;10.408;2023-04-07T10:39:42;10.20;99.90
7000;DHT22;3540;53.242;10.408;2023-04-07T10:45:09;10.00;99.90
7000;DHT22;3540;53.242;10.408;2023-04-07T10:50:24;10.10;99.90
7000;DHT22;3540;53.242;10.408;2023-04-07T10:53:08;10.00;99.90
7000;DHT22;3540;53.242;10.408;2023-04-07T11:03:26;11.10;99.90
7000;DHT22;3540;53.242;10.408;2023-04-07T11:05:52;10.90;99.90
7000;DHT22;3540;53.242;10.408;2023-04-07T11:08:34;10.50;99.90
7000;DHT22;3540;53.242;10.408;2023-04-07T11:11:00;10.70;99.90
7000;DHT22;3540;53.242;10.408;2023-04-07T11:13:26;10.60;99.90
7000;DHT22;3540;53.242;10.408;2023-04-07T11:15:53;11.20;99.90
7000;DHT22;3540;53.242;10.408;2023-04-07T11:18:21;11.40;99.90
7000;DHT22;3540;53.242;10.408;2023-04-07T11:20:55;11.70;99.90
7000;DHT22;3540;53.242;10.408;2023-04-07T11:23:23;11.10;99.90
7000;DHT22;3540;53.242;10.408;2023-04-07T11:25:51;10.80;99.90
7000;DHT22;3540;53.242;10.408;2023-04-07T11:28:18;10.60;99.90
7000;DHT22;3540;53.242;10.408;2023-04-07T11:30:49;11.10;99.90
7000;DHT22;3540;53.242;10.408;2023-04-07T11:33:18;11.50;99.90
7000;DHT22;3540;53.242;10.408;2023-04-07T11:35:48;11.60;99.90
7000;DHT22;3540;53.242;10.408;2023-04-07T11:38:14;11.90;99.90
7000;DHT22;3540;53.242;10.408;2023-04-07T11:40:40;11.00;99.90
7000;DHT22;3540;53.242;10.408;2023-04-07T11:43:20;10.60;99.90
7000;DHT22;3540;53.242;10.408;2023-04-07T11:46:20;11.00;99.90
7000;DHT22;3540;53.242;10.408;2023-04-07T11:48:46;10.90;99.90
7000;DHT22;3540;53.242;10.408;2023-04-07T11:51:17;11.00;99.90
7000;DHT22;3540;53.242;10.408;2023-04-07T11:53:43;10.80;99.90
7000;DHT22;3540;53.242;10.408;2023-04-07T11:56:12;11.20;99.90
7000;DHT22;3540;53.242;10.408;2023-04-07T11:58:51;11.20;99.90
7000;DHT22;3540;53.242;10.408;2023-04-07T12:01:18;11.00;99.90
7000;DHT22;3540;53.242;10.408;2023-04-07T12:04:13;11.20;99.90
7000;DHT22;3540;53.242;10.408;2023-04-07T12:06:40;11.60;99.90
7000;DHT22;3540;53.242;10.408;2023-04-07T12:09:24;11.20;99.90
7000;DHT22;3540;53.242;10.408;2023-04-07T12:11:54;11.50;99.90
7000;DHT22;3540;53.242;10.408;2023-04-07T12:14:20;11.80;99.90
7000;DHT22;3540;53.242;10.408;2023-04-07T12:16:46;11.80;99.90
7000;DHT22;3540;53.242;10.408;2023-04-07T12:19:11;12.00;99.90
7000;DHT22;3540;53.242;10.408;2023-04-07T12:21:37;12.00;99.90
7000;DHT22;3540;53.242;10.408;2023-04-07T12:24:03;11.70;99.90
7000;DHT22;3540;53.242;10.408;2023-04-07T12:26:28;11.90;99.90
7000;DHT22;3540;53.242;10.408;2023-04-07T12:28:54;11.90;99.90
7000;DHT22;3540;53.242;10.408;2023-04-07T12:31:20;11.70;99.90
7000;DHT22;3540;53.242;10.408;2023-04-07T12:33:46;11.60;99.90
7000;DHT22;3540;53.242;10.408;2023-04-07T12:36:12;11.60;99.90
7000;DHT22;3540;53.242;10.408;2023-04-07T12:38:37;11.70;99.90
7000;DHT22;3540;53.242;10.408;2023-04-07T12:41:03;11.20;99.90
7000;DHT22;3540;53.242;10.408;2023-04-07T12:43:30;11.00;99.90
7000;DHT22;3540;53.242;10.408;2023-04-07T12:45:55;11.40;99.90
7000;DHT22;3540;53.242;10.408;2023-04-07T12:48:21;10.70;99.90
7000;DHT22;3540;53.242;10.408;2023-04-07T12:50:48;11.00;99.90
7000;DHT22;3540;53.242;10.408;2023-04-07T12:53:14;11.10;99.90
7000;DHT22;3540;53.242;10.408;2023-04-07T12:55:39;11.30;99.90
7000;DHT22;3540;53.242;10.408;2023-04-07T12:58:06;11.40;99.90
7000;DHT22;3540;53.242;10.408;2023-04-07T13:00:33;11.30;99.90
7000;DHT22;3540;53.242;10.408;2023-04-07T13:03:00;11.00;99.90
7000;DHT22;3540;53.242;10.408;2023-04-07T13:05:25;11.30;99.90
7000;DHT22;3540;53.242;10.408;2023-04-07T13:07:51;11.50;99.90
7000;DHT22;3540;53.242;10.408;2023-04-07T13:10:17;11.00;99.90
7000;DHT22;3540;53.242;10.408;2023-04-07T13:12:43;11.10;99.90
7000;DHT22;3540;53.242;10.408;2023-04-07T13:15:08;11.20;99.90
7000;DHT22;3540;53.242;10.408;2023-04-07T13:17:34;11.00;99.90
7000;DHT22;3540;53.242;10.408;2023-04-07T13:20:02;10.90;99.90
7000;DHT22;3540;53.242;10.408;2023-04-07T13:22:28;10.80;99.90
7000;DHT22;3540;53.242;10.408;2023-04-07T13:24:54;10.60;99.90
7000;DHT22;3540;53.242;10.408;2023-04-07T13:27:19;10.80;99.90
7000;DHT22;3540;53.242;10.408;2023-04-07T13:29:45;10.90;99.90
7000;DHT22;3540;53.242;10.408;2023-04-07T13:32:11;11.10;99.90
7000;DHT22;3540;53.242;10.408;2023-04-07T13:34:38;11.00;99.90
7000;DHT22;3540;53.242;10.408;2023-04-07T13:37:04;11.00;99.90
7000;DHT22;3540;53.242;10.408;2023-04-07T13:39:30;11.10;99.90
7000;DHT22;3540;53.242;10.408;2023-04-07T13:41:56;10.80;99.90
7000;DHT22;3540;53.242;10.408;2023-04-07T13:44:23;10.90;99.90
7000;DHT22;3540;53.242;10.408;2023-04-07T13:46:49;11.00;99.90
7000;DHT22;3540;53.242;10.408;2023-04-07T13:49:15;11.20;99.90
7000;DHT22;3540;53.242;10.408;2023-04-07T13:51:40;10.70;99.90
7000;DHT22;3540;53.242;10.408;2023-04-07T13:54:06;10.70;99.90
7000;DHT22;3540;53.242;10.408;2023-04-07T13:56:32;11.10;99.90
7000;DHT22;3540;53.242;10.408;2023-04-07T13:59:06;11.00;99.90
7000;DHT22;3540;53.242;10.408;2023-04-07T14:01:32;11.10;99.90
7000;DHT22;3540;53.242;10.408;2023-04-07T14:03:59;11.20;99.90
7000;DHT22;3540;53.242;10.408;2023-04-07T14:06:24;10.90;99.90
7000;DHT22;3540;53.242;10.408;2023-04-07T14:08:51;10.80;99.90
7000;DHT22;3540;53.242;10.408;2023-04-07T14:11:17;11.00;99.90
7000;DHT22;3540;53.242;10.408;2023-04-07T14:13:44;11.30;99.90
7000;DHT22;3540;53.242;10.408;2023-04-07T14:16:10;11.30;99.90
7000;DHT22;3540;53.242;10.408;2023-04-07T14:18:35;10.90;99.90
7000;DHT22;3540;53.242;10.408;2023-04-07T14:21:01;11.00;99.90
7000;DHT22;3540;53.242;10.408;2023-04-07T14:23:28;10.90;99.90
7000;DHT22;3540;53.242;10.408;2023-04-07T14:25:53;10.90;99.90
7000;DHT22;3540;53.242;10.408;2023-04-07T14:28:19;10.50;99.90
7000;DHT22;3540;53.242;10.408;2023-04-07T14:30:45;10.40;99.90
7000;DHT22;3540;53.242;10.408;2023-04-07T14:33:11;10.50;99.90
7000;DHT22;3540;53.242;10.408;2023-04-07T14:35:37;10.20;99.90
7000;DHT22;3540;53.242;10.408;2023-04-07T14:38:02;10.20;99.90
7000;DHT22;3540;53.242;10.408;2023-04-07T14:40:28;9.90;99.90
7000;DHT22;3540;53.242;10.408;2023-04-07T14:42:54;10.00;99.90
7000;DHT22;3540;53.242;10.408;2023-04-07T14:45:20;9.90;99.90
7000;DHT22;3540;53.242;10.408;2023-04-07T14:47:45;9.60;99.90
7000;DHT22;3540;53.242;10.408;2023-04-07T14:50:11;9.70;99.90
7000;DHT22;3540;53.242;10.408;2023-04-07T14:52:37;9.80;99.90
7000;DHT22;3540;53.242;10.408;2023-04-07T14:55:02;10.10;99.90
7000;DHT22;3540;53.242;10.408;2023-04-07T14:57:28;10.20;99.90
7000;DHT22;3540;53.242;10.408;2023-04-07T14:59:54;10.00;99.90
7000;DHT22;3540;53.242;10.408;2023-04-07T15:02:19;9.90;99.90
7000;DHT22;3540;53.242;10.408;2023-04-07T15:04:46;9.80;99.90
7000;DHT22;3540;53.242;10.408;2023-04-07T15:07:11;9.80;99.90
7000;DHT22;3540;53.242;10.408;2023-04-07T15:09:37;9.60;99.90
7000;DHT22;3540;53.242;10.408;2023-04-07T15:12:03;9.60;99.90
7000;DHT22;3540;53.242;10.408;2023-04-07T15:14:29;9.70;99.90
7000;DHT22;3540;53.242;10.408;2023-04-07T15:16:55;9.90;99.90
7000;DHT22;3540;53.242;10.408;2023-04-07T15:19:20;9.80;99.90
7000;DHT22;3540;53.242;10.408;2023-04-07T15:21:46;9.60;99.90
7000;DHT22;3540;53.242;10.408;2023-04-07T15:24:11;9.60;99.90
7000;DHT22;3540;53.242;10.408;2023-04-07T15:26:37;9.80;99.90
7000;DHT22;3540;53.242;10.408;2023-04-07T15:29:03;9.70;99.90
7000;DHT22;3540;53.242;10.408;2023-04-07T15:31:28;9.60;99.90
7000;DHT22;3540;53.242;10.408;2023-04-07T15:33:54;9.80;99.90
7000;DHT22;3540;53.242;10.408;2023-04-07T15:36:19;9.70;99.90
7000;DHT22;3540;53.242;10.408;2023-04-07T15:38:45;9.10;99.90
7000;DHT22;3540;53.242;10.408;2023-04-07T15:41:15;9.10;99.90
7000;DHT22;3540;53.242;10.408;2023-04-07T15:43:41;8.80;99.90
7000;DHT22;3540;53.242;10.408;2023-04-07T15:46:06;8.60;99.90
7000;DHT22;3540;53.242;10.408;2023-04-07T15:48:32;8.60;99.90
7000;DHT22;3540;53.242;10.408;2023-04-07T15:50:58;8.70;99.90
7000;DHT22;3540;53.242;10.408;2023-04-07T15:53:23;8.70;99.90
7000;DHT22;3540;53.242;10.408;2023-04-07T15:55:49;8.60;99.90
7000;DHT22;3540;53.242;10.408;2023-04-07T15:58:15;8.60;99.90
7000;DHT22;3540;53.242;10.408;2023-04-07T16:00:40;8.50;99.90
7000;DHT22;3540;53.242;10.408;2023-04-07T16:03:06;8.40;99.90
7000;DHT22;3540;53.242;10.408;2023-04-07T16:05:32;8.50;99.90
7000;DHT22;3540;53.242;10.408;2023-04-07T16:07:57;8.30;99.90
7000;DHT22;3540;53.242;10.408;2023-04-07T16:10:23;8.20;99.90
7000;DHT22;3540;53.242;10.408;2023-04-07T16:12:49;8.10;99.90
7000;DHT22;3540;53.242;10.408;2023-04-07T16:15:15;8.00;99.90
7000;DHT22;3540;53.242;10.408;2023-04-07T16:17:42;7.90;99.90
7000;DHT22;3540;53.242;10.408;2023-04-07T16:20:09;8.00;99.90
7000;DHT22;3540;53.242;10.408;2023-04-07T16:22:45;7.90;99.90
7000;DHT22;3540;53.242;10.408;2023-04-07T16:25:16;7.90;99.90
7000;DHT22;3540;53.242;10.408;2023-04-07T16:27:42;7.80;99.90
7000;DHT22;3540;53.242;10.408;2023-04-07T16:30:10;7.60;99.90
7000;DHT22;3540;53.242;10.408;2023-04-07T16:32:36;7.70;99.90
7000;DHT22;3540;53.242;10.408;2023-04-07T16:35:02;7.60;99.90